createdAt,value
2022-11-18T00:05:22.031Z,99183.99
2022-11-18T00:15:31.450Z,99174.92
2022-11-18T00:25:36.634Z,99167.34
2022-11-18T00:35:41.664Z,99174.81
2022-11-18T00:45:46.927Z,99171.26
2022-11-18T00:55:50.974Z,99162.28
2022-11-18T01:05:57.272Z,99157.60
2022-11-18T01:16:02.389Z,99148.63
2022-11-18T01:26:10.400Z,99140.30
2022-11-18T01:36:33.814Z,99135.83
2022-11-18T01:46:37.143Z,99140.27
2022-11-18T01:56:50.296Z,99133.27
2022-11-18T02:06:58.296Z,99133.96
2022-11-18T02:17:08.020Z,99116.94
2022-11-18T02:27:14.157Z,99107.15
2022-11-18T02:37:22.516Z,99111.63
2022-11-18T02:47:29.858Z,99117.98
2022-11-18T02:57:34.455Z,99119.42
2022-11-18T03:07:41.110Z,99124.80
2022-11-18T03:18:02.868Z,99128.42
2022-11-18T03:28:24.650Z,99120.04
2022-11-18T03:38:35.632Z,99102.83
2022-11-18T03:48:47.782Z,99108.80
2022-11-18T03:58:54.648Z,99108.00
2022-11-18T04:09:08.808Z,99112.66
2022-11-18T04:19:13.132Z,99107.41
2022-11-18T04:29:18.205Z,99104.73
2022-11-18T04:39:22.094Z,99108.13
2022-11-18T04:49:26.264Z,99107.39
2022-11-18T04:59:30.255Z,99110.34
2022-11-18T05:09:37.097Z,99113.85
2022-11-18T05:19:40.534Z,99109.00
2022-11-18T05:29:45.372Z,99124.03
2022-11-18T05:39:48.596Z,99126.91
2022-11-18T05:49:53.601Z,99130.92
2022-11-18T05:59:57.198Z,99125.36
2022-11-18T06:10:05.954Z,99132.45
2022-11-18T06:20:12.044Z,99130.33
2022-11-18T06:30:17.812Z,99154.70
2022-11-18T06:40:21.268Z,99160.60
2022-11-18T06:50:24.813Z,99166.88
2022-11-18T07:00:29.869Z,99165.11
2022-11-18T07:10:34.207Z,99175.33
2022-11-18T07:20:38.014Z,99180.33
2022-11-18T07:30:43.857Z,99183.20
2022-11-18T07:40:47.127Z,99183.63
2022-11-18T07:50:54.589Z,99187.61
2022-11-18T08:01:16.306Z,99180.89
2022-11-18T08:11:22.980Z,99191.44
2022-11-18T08:21:26.989Z,99194.59
2022-11-18T08:31:31.168Z,99203.96
2022-11-18T08:41:43.655Z,99207.44
2022-11-18T08:51:47.202Z,99218.66
2022-11-18T09:01:50.497Z,99232.39
2022-11-18T09:11:55.096Z,99232.46
2022-11-18T09:21:59.244Z,99236.34
2022-11-18T09:32:02.626Z,99242.02
2022-11-18T09:42:27.601Z,99236.48
2022-11-18T09:52:49.718Z,99239.65
2022-11-18T10:03:23.068Z,99246.09
2022-11-18T10:13:53.441Z,99248.38
2022-11-18T10:24:14.157Z,99248.23
2022-11-18T10:34:20.369Z,99255.91
2022-11-18T10:44:30.895Z,99258.85
2022-11-18T10:54:36.721Z,99255.49
2022-11-18T11:04:41.957Z,99267.02
2022-11-18T11:15:02.241Z,99268.83
2022-11-18T11:25:22.188Z,99277.13
2022-11-18T11:35:43.706Z,99276.36
2022-11-18T11:46:08.723Z,99273.42
2022-11-18T11:56:29.918Z,99272.99
2022-11-18T12:06:36.106Z,99271.02
2022-11-18T12:16:54.210Z,99264.40
2022-11-18T12:26:59.668Z,99281.81
2022-11-18T12:37:32.501Z,99305.52
2022-11-18T12:47:41.887Z,99308.48
2022-11-18T12:57:46.663Z,99307.20
2022-11-18T13:08:13.827Z,99313.55
2022-11-18T13:18:20.483Z,99319.48
2022-11-18T13:28:55.708Z,99323.42
2022-11-18T13:39:05.661Z,99330.46
2022-11-18T13:49:16.617Z,99341.15
2022-11-18T13:59:25.544Z,99340.33
2022-11-18T14:09:33.081Z,99342.58
2022-11-18T14:19:38.175Z,99345.17
2022-11-18T14:29:50.720Z,99358.06
2022-11-18T14:39:59.899Z,99356.40
2022-11-18T14:50:03.586Z,99363.09
2022-11-18T15:00:08.450Z,99375.86
2022-11-18T15:10:18.011Z,99371.77
2022-11-18T15:20:24.683Z,99381.67
2022-11-18T15:30:28.178Z,99401.61
2022-11-18T15:40:31.625Z,99405.60
2022-11-18T15:50:35.187Z,99422.17
2022-11-18T16:00:39.218Z,99432.37
2022-11-18T16:11:04.248Z,99437.20
2022-11-18T16:21:09.820Z,99439.67
2022-11-18T16:31:31.747Z,99444.69
2022-11-18T16:41:35.869Z,99457.72
2022-11-18T16:51:44.700Z,99460.55
2022-11-18T17:01:50.722Z,99455.59
2022-11-18T17:11:55.899Z,99455.55
2022-11-18T17:22:01.264Z,99465.71
2022-11-18T17:32:04.858Z,99472.40
2022-11-18T17:42:14.469Z,99475.23
2022-11-18T17:52:21.726Z,99470.58
2022-11-18T18:02:25.086Z,99470.94
2022-11-18T18:12:47.023Z,99475.56
2022-11-18T18:22:54.453Z,99482.63
2022-11-18T18:33:04.216Z,99473.77
2022-11-18T18:43:07.744Z,99468.90
2022-11-18T18:53:11.375Z,99481.00
2022-11-18T19:03:17.454Z,99487.24
2022-11-18T19:13:20.838Z,99492.82
2022-11-18T19:23:26.098Z,99501.41
2022-11-18T19:33:29.537Z,99507.82
2022-11-18T19:43:33.098Z,99514.01
2022-11-18T19:53:40.500Z,99514.69
2022-11-18T20:03:50.317Z,99508.44
2022-11-18T20:13:54.043Z,99509.57
2022-11-18T20:24:03.849Z,99504.96
2022-11-18T20:34:15.071Z,99513.61
2022-11-18T20:44:21.508Z,99508.49
2022-11-18T20:54:25.147Z,99506.34
2022-11-18T21:04:28.473Z,99502.71
2022-11-18T21:14:31.882Z,99505.16
2022-11-18T21:24:35.689Z,99499.04
2022-11-18T21:34:39.016Z,99502.79
2022-11-18T21:44:42.367Z,99499.95
2022-11-18T21:54:45.892Z,99501.74
2022-11-18T22:04:55.159Z,99506.41
2022-11-18T22:14:58.591Z,99506.32
2022-11-18T22:25:02.093Z,99513.13
2022-11-18T22:35:06.154Z,99515.90
2022-11-18T22:45:09.889Z,99519.64
2022-11-18T22:55:14.291Z,99521.50
2022-11-18T23:05:19.712Z,99523.83
2022-11-18T23:15:25.738Z,99518.87
2022-11-18T23:25:30.255Z,99513.98
2022-11-18T23:35:39.881Z,99514.13
2022-11-18T23:45:46.405Z,99514.69
2022-11-18T23:55:53.008Z,99512.15
